createdAt,value
2023-03-30T00:01:54.530Z,56.45
2023-03-30T00:05:03.397Z,56.55
2023-03-30T00:08:05.742Z,56.57
2023-03-30T00:11:13.323Z,56.61
2023-03-30T00:14:17.963Z,56.69
2023-03-30T00:17:19.518Z,56.51
2023-03-30T00:20:22.510Z,56.62
2023-03-30T00:26:49.050Z,56.60
2023-03-30T00:29:50.812Z,56.63
2023-03-30T00:32:53.870Z,56.80
2023-03-30T00:35:57.185Z,56.65
2023-03-30T00:38:58.699Z,56.71
2023-03-30T00:42:00.617Z,56.66
2023-03-30T00:45:08.517Z,56.81
2023-03-30T00:48:15.766Z,56.65
2023-03-30T00:51:19.042Z,56.92
2023-03-30T00:54:20.939Z,56.83
2023-03-30T00:57:25.214Z,56.74
2023-03-30T01:00:26.871Z,56.99
2023-03-30T01:03:32.951Z,57.09
2023-03-30T01:06:36.885Z,56.84
2023-03-30T01:09:41.056Z,56.88
2023-03-30T01:12:43.619Z,57.00
2023-03-30T01:16:07.908Z,57.03
2023-03-30T01:19:46.020Z,57.01
2023-03-30T01:23:03.748Z,57.07
2023-03-30T01:26:39.484Z,57.02
2023-03-30T01:30:24.829Z,56.94
2023-03-30T01:33:56.067Z,57.12
2023-03-30T01:37:34.582Z,57.07
2023-03-30T01:40:52.349Z,57.16
2023-03-30T01:44:04.120Z,57.25
2023-03-30T01:47:23.952Z,57.22
2023-03-30T01:50:33.575Z,57.24
2023-03-30T01:53:49.028Z,57.20
2023-03-30T01:56:59.889Z,57.35
2023-03-30T02:00:14.348Z,57.48
2023-03-30T02:03:32.671Z,57.14
2023-03-30T02:06:40.150Z,57.26
2023-03-30T02:09:43.866Z,57.47
2023-03-30T02:12:47.009Z,57.47
2023-03-30T02:15:53.086Z,57.49
2023-03-30T02:18:55.345Z,57.65
2023-03-30T02:21:57.134Z,57.45
2023-03-30T02:24:58.688Z,57.72
2023-03-30T02:28:00.486Z,57.74
2023-03-30T02:31:04.570Z,57.77
2023-03-30T02:34:09.616Z,57.59
2023-03-30T02:37:43.474Z,57.61
2023-03-30T02:40:54.156Z,57.68
2023-03-30T02:44:14.383Z,57.58
2023-03-30T02:47:37.248Z,57.81
2023-03-30T02:50:57.305Z,57.56
2023-03-30T02:54:13.057Z,57.51
2023-03-30T02:57:53.010Z,57.59
2023-03-30T03:01:09.273Z,57.59
2023-03-30T03:04:12.351Z,57.70
2023-03-30T03:07:14.462Z,57.72
2023-03-30T03:10:16.083Z,57.65
2023-03-30T03:13:19.069Z,57.65
2023-03-30T03:16:20.791Z,57.72
2023-03-30T03:19:23.086Z,57.57
2023-03-30T03:22:24.663Z,57.48
2023-03-30T03:25:26.257Z,57.72
2023-03-30T03:28:28.603Z,57.48
2023-03-30T03:31:30.374Z,57.59
2023-03-30T03:34:31.970Z,57.76
2023-03-30T03:37:33.551Z,57.81
2023-03-30T03:40:35.141Z,58.00
2023-03-30T03:43:36.790Z,57.67
2023-03-30T03:46:38.385Z,57.77
2023-03-30T03:49:40.028Z,57.95
2023-03-30T03:52:41.601Z,57.77
2023-03-30T03:55:44.787Z,57.86
2023-03-30T03:58:46.570Z,57.89
2023-03-30T04:01:48.371Z,57.66
2023-03-30T04:04:51.190Z,57.83
2023-03-30T04:07:56.851Z,57.76
2023-03-30T04:11:08.077Z,57.63
2023-03-30T04:14:09.766Z,57.63
2023-03-30T04:17:11.852Z,57.65
2023-03-30T04:20:13.453Z,57.62
2023-03-30T04:23:16.506Z,57.69
2023-03-30T04:26:18.083Z,57.92
2023-03-30T04:29:20.823Z,57.87
2023-03-30T04:32:22.392Z,57.68
2023-03-30T04:35:23.935Z,57.72
2023-03-30T04:38:25.502Z,57.69
2023-03-30T04:41:35.897Z,57.68
2023-03-30T04:44:37.494Z,57.79
2023-03-30T04:47:39.067Z,57.89
2023-03-30T04:50:41.298Z,57.85
2023-03-30T04:53:42.980Z,57.85
2023-03-30T04:56:44.667Z,57.85
2023-03-30T04:59:46.284Z,57.71
2023-03-30T05:02:47.989Z,57.77
2023-03-30T05:05:49.634Z,57.75
2023-03-30T05:08:51.544Z,57.89
2023-03-30T05:11:53.097Z,57.86
2023-03-30T05:14:54.683Z,57.90
2023-03-30T05:17:56.758Z,57.82
2023-03-30T05:20:59.142Z,57.84
2023-03-30T05:24:00.828Z,57.87
2023-03-30T05:27:02.891Z,57.84
2023-03-30T05:30:04.842Z,57.75
2023-03-30T05:33:09.654Z,57.74
2023-03-30T05:36:11.726Z,57.72
2023-03-30T05:39:13.603Z,57.66
2023-03-30T05:42:15.400Z,57.72
2023-03-30T05:45:17.473Z,57.63
2023-03-30T05:48:19.433Z,57.64
2023-03-30T05:51:21.052Z,57.71
2023-03-30T05:54:22.750Z,57.56
2023-03-30T05:57:24.316Z,57.62
2023-03-30T06:00:26.587Z,57.59
2023-03-30T06:03:28.226Z,57.74
2023-03-30T06:06:30.186Z,57.72
2023-03-30T06:09:31.936Z,57.75
2023-03-30T06:12:33.832Z,57.56
2023-03-30T06:15:35.371Z,57.60
2023-03-30T06:18:37.022Z,57.64
2023-03-30T06:21:38.558Z,57.48
2023-03-30T06:24:40.226Z,57.53
2023-03-30T06:27:44.165Z,57.54
2023-03-30T06:30:48.822Z,57.58
2023-03-30T06:33:51.266Z,57.59
2023-03-30T06:36:53.850Z,57.49
2023-03-30T06:39:57.352Z,57.57
2023-03-30T06:42:58.927Z,57.48
2023-03-30T06:46:00.836Z,57.59
2023-03-30T06:49:02.672Z,57.81
2023-03-30T06:52:05.684Z,57.68
2023-03-30T06:55:09.630Z,57.57
2023-03-30T06:58:11.406Z,57.40
2023-03-30T07:01:15.851Z,57.39
2023-03-30T07:04:17.602Z,57.52
2023-03-30T07:07:19.239Z,57.57
2023-03-30T07:10:22.146Z,57.55
2023-03-30T07:13:23.742Z,57.55
2023-03-30T07:16:25.782Z,57.55
2023-03-30T07:19:27.429Z,57.63
2023-03-30T07:22:28.998Z,57.61
2023-03-30T07:25:30.691Z,57.59
2023-03-30T07:28:32.271Z,57.55
2023-03-30T07:31:34.089Z,57.54
2023-03-30T07:34:35.643Z,57.56
2023-03-30T07:37:40.048Z,57.56
2023-03-30T07:40:42.114Z,57.53
2023-03-30T07:43:43.782Z,57.35
2023-03-30T07:46:45.623Z,57.66
2023-03-30T07:49:47.190Z,57.41
2023-03-30T07:52:51.392Z,57.38
2023-03-30T07:55:53.125Z,57.49
2023-03-30T07:58:54.974Z,57.52
2023-03-30T08:01:57.076Z,57.29
2023-03-30T08:05:00.255Z,57.49
2023-03-30T08:08:01.936Z,57.21
2023-03-30T08:11:03.757Z,57.15
2023-03-30T08:14:05.945Z,57.07
2023-03-30T08:17:07.794Z,57.35
2023-03-30T08:20:11.632Z,57.08
2023-03-30T08:23:13.652Z,57.27
2023-03-30T08:26:15.214Z,57.34
2023-03-30T08:29:17.138Z,57.17
2023-03-30T08:32:18.723Z,57.08
2023-03-30T08:35:20.372Z,57.34
2023-03-30T08:38:21.956Z,57.40
2023-03-30T08:41:29.493Z,57.24
2023-03-30T08:44:38.068Z,57.46
2023-03-30T08:47:44.103Z,57.32
2023-03-30T08:51:09.157Z,57.31
2023-03-30T08:54:19.422Z,57.24
2023-03-30T08:57:33.373Z,57.44
2023-03-30T09:01:06.409Z,57.55
2023-03-30T09:04:21.302Z,57.44
2023-03-30T09:07:30.113Z,57.44
2023-03-30T09:10:40.043Z,57.09
2023-03-30T09:13:45.807Z,57.27
2023-03-30T09:17:13.585Z,57.28
2023-03-30T09:20:18.731Z,57.22
2023-03-30T09:23:20.317Z,57.04
2023-03-30T09:26:47.790Z,56.94
2023-03-30T09:29:52.239Z,56.84
2023-03-30T09:33:00.916Z,56.99
2023-03-30T09:36:14.957Z,56.63
2023-03-30T09:39:19.783Z,56.59
2023-03-30T09:42:21.281Z,56.80
2023-03-30T09:45:28.241Z,56.65
2023-03-30T09:48:39.112Z,57.01
2023-03-30T09:52:00.863Z,56.83
2023-03-30T09:55:20.653Z,56.91
2023-03-30T09:58:33.659Z,56.84
2023-03-30T10:01:38.085Z,56.77
2023-03-30T10:04:58.511Z,56.42
2023-03-30T10:08:03.395Z,56.65
2023-03-30T10:11:06.654Z,56.46
2023-03-30T10:14:32.268Z,56.55
2023-03-30T10:17:34.168Z,56.42
2023-03-30T10:20:36.792Z,56.36
2023-03-30T10:23:41.936Z,56.63
2023-03-30T10:26:47.052Z,56.06
2023-03-30T10:29:50.826Z,56.40
2023-03-30T10:32:55.503Z,56.15
2023-03-30T10:36:03.142Z,56.18
2023-03-30T10:39:26.344Z,56.23
2023-03-30T10:42:32.901Z,55.96
2023-03-30T10:45:34.367Z,56.13
2023-03-30T10:49:20.465Z,56.15
2023-03-30T10:53:10.515Z,56.06
2023-03-30T10:56:43.164Z,55.92
2023-03-30T11:00:00.299Z,56.31
2023-03-30T11:03:12.832Z,56.29
2023-03-30T11:06:25.075Z,56.44
2023-03-30T11:09:36.216Z,56.54
2023-03-30T11:12:45.992Z,56.39
2023-03-30T11:15:54.271Z,56.27
2023-03-30T11:19:01.846Z,56.41
2023-03-30T11:22:16.773Z,56.18
2023-03-30T11:25:25.573Z,56.16
2023-03-30T11:28:54.830Z,56.49
2023-03-30T11:32:02.165Z,56.46
2023-03-30T11:35:17.282Z,56.23
2023-03-30T11:38:24.710Z,55.83
2023-03-30T11:41:40.326Z,55.99
2023-03-30T11:44:42.460Z,56.15
2023-03-30T11:48:11.959Z,55.76
2023-03-30T11:51:35.644Z,55.76
2023-03-30T11:55:01.859Z,56.06
2023-03-30T11:58:38.139Z,55.86
2023-03-30T12:01:50.261Z,55.64
2023-03-30T12:05:01.791Z,55.71
2023-03-30T12:08:20.985Z,55.57
2023-03-30T12:11:49.850Z,55.64
2023-03-30T12:15:26.688Z,55.71
2023-03-30T12:18:37.186Z,55.73
2023-03-30T12:21:49.737Z,55.81
2023-03-30T12:24:53.154Z,55.85
2023-03-30T12:28:16.856Z,55.71
2023-03-30T12:31:18.580Z,55.81
2023-03-30T12:34:21.378Z,55.37
2023-03-30T12:37:35.440Z,55.71
2023-03-30T12:40:38.244Z,55.49
2023-03-30T12:43:57.945Z,55.21
2023-03-30T12:47:33.664Z,55.29
2023-03-30T12:50:57.561Z,55.30
2023-03-30T12:54:23.264Z,55.05
2023-03-30T12:57:57.169Z,55.03
2023-03-30T13:01:14.000Z,55.12
2023-03-30T13:04:24.003Z,54.99
2023-03-30T13:07:32.042Z,55.19
2023-03-30T13:10:38.619Z,54.86
2023-03-30T13:14:00.954Z,55.20
2023-03-30T13:17:02.731Z,55.25
2023-03-30T13:20:29.151Z,54.73
2023-03-30T13:23:35.517Z,54.63
2023-03-30T13:26:43.870Z,54.78
2023-03-30T13:30:02.389Z,54.82
2023-03-30T13:33:18.962Z,54.46
2023-03-30T13:36:29.996Z,54.63
2023-03-30T13:39:42.873Z,54.57
2023-03-30T13:42:47.101Z,54.56
2023-03-30T13:46:16.939Z,54.71
2023-03-30T13:49:19.207Z,54.46
2023-03-30T13:52:39.391Z,54.38
2023-03-30T13:55:48.116Z,54.73
2023-03-30T13:59:03.427Z,54.54
2023-03-30T14:02:05.944Z,54.69
2023-03-30T14:05:20.673Z,54.70
2023-03-30T14:08:22.234Z,54.45
2023-03-30T14:11:33.438Z,54.43
2023-03-30T14:14:38.448Z,54.69
2023-03-30T14:17:40.060Z,54.70
2023-03-30T14:20:57.183Z,54.86
2023-03-30T14:24:02.419Z,55.18
2023-03-30T14:27:22.440Z,54.83
2023-03-30T14:30:29.037Z,54.86
2023-03-30T14:33:32.974Z,54.93
2023-03-30T14:36:34.581Z,54.73
2023-03-30T14:39:52.630Z,54.76
2023-03-30T14:42:54.261Z,54.84
2023-03-30T14:45:59.666Z,54.59
2023-03-30T14:49:01.625Z,54.75
2023-03-30T14:52:08.995Z,54.52
2023-03-30T14:55:18.865Z,54.38
2023-03-30T14:58:21.164Z,54.13
2023-03-30T15:01:31.246Z,54.21
2023-03-30T15:04:37.512Z,53.99
2023-03-30T15:07:40.159Z,54.10
2023-03-30T15:10:49.738Z,53.92
2023-03-30T15:14:01.694Z,53.98
2023-03-30T15:17:11.095Z,54.00
2023-03-30T15:20:14.073Z,54.32
2023-03-30T15:23:16.656Z,53.99
2023-03-30T15:26:19.107Z,54.06
2023-03-30T15:29:23.187Z,54.22
2023-03-30T15:32:35.287Z,54.04
2023-03-30T15:35:37.789Z,54.23
2023-03-30T15:38:51.432Z,54.15
2023-03-30T15:41:55.996Z,54.10
2023-03-30T15:45:12.107Z,54.19
2023-03-30T15:48:13.738Z,54.28
2023-03-30T15:51:28.848Z,54.43
2023-03-30T15:54:40.427Z,54.17
2023-03-30T15:57:45.995Z,54.10
2023-03-30T16:00:48.467Z,54.10
2023-03-30T16:04:01.471Z,54.03
2023-03-30T16:07:13.986Z,54.07
2023-03-30T16:10:26.425Z,53.93
2023-03-30T16:13:28.039Z,54.16
2023-03-30T16:16:29.859Z,53.96
2023-03-30T16:19:31.473Z,54.28
2023-03-30T16:22:33.038Z,53.98
2023-03-30T16:25:44.802Z,54.26
2023-03-30T16:28:50.986Z,54.25
2023-03-30T16:31:53.858Z,54.22
2023-03-30T16:34:55.613Z,54.13
2023-03-30T16:37:58.498Z,53.98
2023-03-30T16:41:01.549Z,53.94
2023-03-30T16:44:03.109Z,54.05
2023-03-30T16:47:04.954Z,54.32
2023-03-30T16:50:40.914Z,54.10
2023-03-30T16:53:42.621Z,54.07
2023-03-30T16:56:44.327Z,54.05
2023-03-30T16:59:45.861Z,54.51
2023-03-30T17:02:50.568Z,54.62
2023-03-30T17:05:52.222Z,54.57
2023-03-30T17:08:55.460Z,54.62
2023-03-30T17:11:57.337Z,54.69
2023-03-30T17:14:58.905Z,54.76
2023-03-30T17:18:00.523Z,54.65
2023-03-30T17:21:02.247Z,54.76
2023-03-30T17:24:03.972Z,54.65
2023-03-30T17:27:06.298Z,54.71
2023-03-30T17:30:34.393Z,54.63
2023-03-30T17:33:36.248Z,55.19
2023-03-30T17:36:38.974Z,54.77
2023-03-30T17:39:40.633Z,54.47
2023-03-30T17:42:42.420Z,54.80
2023-03-30T17:45:44.658Z,54.55
2023-03-30T17:48:46.412Z,54.77
2023-03-30T17:51:47.918Z,54.87
2023-03-30T17:54:49.443Z,54.95
2023-03-30T17:57:51.976Z,54.70
2023-03-30T18:00:53.893Z,54.90
2023-03-30T18:03:55.480Z,55.02
2023-03-30T18:06:57.170Z,54.52
2023-03-30T18:09:58.743Z,55.03
2023-03-30T18:13:00.379Z,54.85
2023-03-30T18:16:02.161Z,54.89
2023-03-30T18:19:03.760Z,54.84
2023-03-30T18:22:06.607Z,55.02
2023-03-30T18:25:09.717Z,54.91
2023-03-30T18:28:16.925Z,54.89
2023-03-30T18:31:18.500Z,54.93
2023-03-30T18:34:20.261Z,55.08
2023-03-30T18:37:21.843Z,55.10
2023-03-30T18:40:32.678Z,55.05
2023-03-30T18:43:35.742Z,54.99
2023-03-30T18:46:37.315Z,55.34
2023-03-30T18:49:39.404Z,55.17
2023-03-30T18:52:41.017Z,55.18
2023-03-30T18:55:47.586Z,55.14
2023-03-30T18:58:49.236Z,55.22
2023-03-30T19:01:51.480Z,55.41
2023-03-30T19:04:55.652Z,55.28
2023-03-30T19:07:57.630Z,55.15
2023-03-30T19:10:59.185Z,55.38
2023-03-30T19:14:02.177Z,55.34
2023-03-30T19:17:04.042Z,55.33
2023-03-30T19:20:07.106Z,55.42
2023-03-30T19:23:12.381Z,55.40
2023-03-30T19:26:14.125Z,55.41
2023-03-30T19:29:15.777Z,55.41
2023-03-30T19:32:19.549Z,55.46
2023-03-30T19:35:21.219Z,55.42
2023-03-30T19:38:22.878Z,55.47
2023-03-30T19:41:24.481Z,55.47
2023-03-30T19:44:26.083Z,55.58
2023-03-30T19:47:30.879Z,55.70
2023-03-30T19:50:32.714Z,55.63
2023-03-30T19:53:35.734Z,55.74
2023-03-30T19:56:37.438Z,55.74
2023-03-30T19:59:39.088Z,55.83
2023-03-30T20:02:41.935Z,55.75
2023-03-30T20:05:50.116Z,55.74
2023-03-30T20:08:53.462Z,55.64
2023-03-30T20:11:55.973Z,55.71
2023-03-30T20:14:58.944Z,55.81
2023-03-30T20:18:00.740Z,55.79
2023-03-30T20:21:03.652Z,55.87
2023-03-30T20:24:05.784Z,55.80
2023-03-30T20:27:07.424Z,55.86
2023-03-30T20:30:09.765Z,55.89
2023-03-30T20:33:11.359Z,55.81
2023-03-30T20:36:13.052Z,55.94
2023-03-30T20:39:14.662Z,55.95
2023-03-30T20:42:18.145Z,55.96
2023-03-30T20:45:26.019Z,55.98
2023-03-30T20:48:39.282Z,55.82
2023-03-30T20:51:43.264Z,55.89
2023-03-30T20:54:45.081Z,55.95
2023-03-30T20:57:46.636Z,56.01
2023-03-30T21:00:52.136Z,55.90
2023-03-30T21:04:01.874Z,55.94
2023-03-30T21:07:03.559Z,55.87
2023-03-30T21:10:05.862Z,55.92
2023-03-30T21:13:07.424Z,55.98
2023-03-30T21:16:09.118Z,55.97
2023-03-30T21:19:11.377Z,56.04
2023-03-30T21:22:12.937Z,56.06
2023-03-30T21:25:14.799Z,56.12
2023-03-30T21:28:16.375Z,56.10
2023-03-30T21:31:17.985Z,56.10
2023-03-30T21:34:20.256Z,56.24
2023-03-30T21:37:21.759Z,56.20
2023-03-30T21:40:23.349Z,56.22
2023-03-30T21:43:25.762Z,56.23
2023-03-30T21:46:27.456Z,56.05
2023-03-30T21:49:29.022Z,56.26
2023-03-30T21:52:31.186Z,56.23
2023-03-30T21:55:32.710Z,56.21
2023-03-30T21:58:34.502Z,56.32
2023-03-30T22:01:36.115Z,56.28
2023-03-30T22:04:37.839Z,56.20
2023-03-30T22:07:40.075Z,56.23
2023-03-30T22:10:42.505Z,56.18
2023-03-30T22:13:46.089Z,56.20
2023-03-30T22:16:49.396Z,56.12
2023-03-30T22:19:51.948Z,56.16
2023-03-30T22:22:53.628Z,56.13
2023-03-30T22:25:55.772Z,56.19
2023-03-30T22:28:57.520Z,56.09
2023-03-30T22:31:59.183Z,56.25
2023-03-30T22:35:01.031Z,56.25
2023-03-30T22:38:02.638Z,56.29
2023-03-30T22:41:07.601Z,56.54
2023-03-30T22:44:09.699Z,56.44
2023-03-30T22:47:11.289Z,56.42
2023-03-30T22:50:12.850Z,56.58
2023-03-30T22:53:14.375Z,56.50
2023-03-30T22:56:16.376Z,56.53
2023-03-30T22:59:17.920Z,56.58
2023-03-30T23:02:19.485Z,56.54
2023-03-30T23:05:21.451Z,56.57
2023-03-30T23:08:23.997Z,56.59
2023-03-30T23:11:26.432Z,56.68
2023-03-30T23:14:28.211Z,56.54
2023-03-30T23:17:32.608Z,56.62
2023-03-30T23:20:34.182Z,56.67
2023-03-30T23:23:36.339Z,56.66
2023-03-30T23:26:38.049Z,56.62
2023-03-30T23:29:39.747Z,56.71
2023-03-30T23:32:41.900Z,56.68
2023-03-30T23:35:49.494Z,56.72
2023-03-30T23:38:57.177Z,56.71
2023-03-30T23:41:58.768Z,56.64
2023-03-30T23:45:00.486Z,56.74
2023-03-30T23:48:02.116Z,56.81
2023-03-30T23:51:04.040Z,56.67
2023-03-30T23:54:07.146Z,56.71
2023-03-30T23:57:09.803Z,56.70
